sensor_id;sensor_type;location;lat;lon;timestamp;P1;durP1;ratioP1;P2;durP2;ratioP2
3757;SDS011;1894;51.038;13.692;2023-03-01T00:01:26;31.47;;;17.67;;
3757;SDS011;1894;51.038;13.692;2023-03-01T00:03:56;35.80;;;18.00;;
3757;SDS011;1894;51.038;13.692;2023-03-01T00:06:24;34.97;;;18.90;;
3757;SDS011;1894;51.038;13.692;2023-03-01T00:08:52;26.57;;;16.30;;
3757;SDS011;1894;51.038;13.692;2023-03-01T00:11:27;26.90;;;16.57;;
3757;SDS011;1894;51.038;13.692;2023-03-01T00:13:57;30.43;;;17.73;;
3757;SDS011;1894;51.038;13.692;2023-03-01T00:16:32;27.90;;;17.87;;
3757;SDS011;1894;51.038;13.692;2023-03-01T00:19:08;28.10;;;18.00;;
3757;SDS011;1894;51.038;13.692;2023-03-01T00:21:42;28.93;;;17.17;;
3757;SDS011;1894;51.038;13.692;2023-03-01T00:24:09;31.00;;;16.70;;
3757;SDS011;1894;51.038;13.692;2023-03-01T00:26:37;31.10;;;17.97;;
3757;SDS011;1894;51.038;13.692;2023-03-01T00:29:04;32.00;;;16.40;;
3757;SDS011;1894;51.038;13.692;2023-03-01T00:31:33;31.50;;;16.90;;
3757;SDS011;1894;51.038;13.692;2023-03-01T00:34:02;29.20;;;16.70;;
3757;SDS011;1894;51.038;13.692;2023-03-01T00:36:32;29.70;;;16.83;;
3757;SDS011;1894;51.038;13.692;2023-03-01T00:39:03;26.77;;;16.53;;
3757;SDS011;1894;51.038;13.692;2023-03-01T00:41:32;31.80;;;17.47;;
3757;SDS011;1894;51.038;13.692;2023-03-01T00:44:01;34.97;;;18.17;;
3757;SDS011;1894;51.038;13.692;2023-03-01T00:46:28;32.97;;;19.77;;
3757;SDS011;1894;51.038;13.692;2023-03-01T00:48:57;36.90;;;20.30;;
3757;SDS011;1894;51.038;13.692;2023-03-01T00:51:25;30.50;;;19.13;;
3757;SDS011;1894;51.038;13.692;2023-03-01T00:53:56;32.37;;;19.57;;
3757;SDS011;1894;51.038;13.692;2023-03-01T00:56:26;35.80;;;19.73;;
3757;SDS011;1894;51.038;13.692;2023-03-01T00:58:55;29.63;;;18.40;;
3757;SDS011;1894;51.038;13.692;2023-03-01T01:01:24;34.03;;;19.00;;
3757;SDS011;1894;51.038;13.692;2023-03-01T01:06:41;31.20;;;19.47;;
3757;SDS011;1894;51.038;13.692;2023-03-01T01:09:14;37.10;;;20.13;;
3757;SDS011;1894;51.038;13.692;2023-03-01T01:11:44;36.70;;;20.00;;
3757;SDS011;1894;51.038;13.692;2023-03-01T01:14:13;36.53;;;18.87;;
3757;SDS011;1894;51.038;13.692;2023-03-01T01:16:41;44.97;;;20.67;;
3757;SDS011;1894;51.038;13.692;2023-03-01T01:19:10;46.83;;;21.00;;
3757;SDS011;1894;51.038;13.692;2023-03-01T01:21:37;40.47;;;18.50;;
3757;SDS011;1894;51.038;13.692;2023-03-01T01:24:05;41.40;;;20.60;;
3757;SDS011;1894;51.038;13.692;2023-03-01T01:26:33;33.80;;;18.27;;
3757;SDS011;1894;51.038;13.692;2023-03-01T01:29:02;39.77;;;19.10;;
3757;SDS011;1894;51.038;13.692;2023-03-01T01:31:32;32.27;;;17.10;;
3757;SDS011;1894;51.038;13.692;2023-03-01T01:34:01;30.47;;;18.07;;
3757;SDS011;1894;51.038;13.692;2023-03-01T01:36:31;32.37;;;18.33;;
3757;SDS011;1894;51.038;13.692;2023-03-01T01:38:59;30.90;;;17.83;;
3757;SDS011;1894;51.038;13.692;2023-03-01T01:41:28;35.87;;;19.47;;
3757;SDS011;1894;51.038;13.692;2023-03-01T01:49:40;30.43;;;17.67;;
3757;SDS011;1894;51.038;13.692;2023-03-01T01:52:36;34.43;;;17.97;;
3757;SDS011;1894;51.038;13.692;2023-03-01T01:57:35;33.57;;;17.10;;
3757;SDS011;1894;51.038;13.692;2023-03-01T02:00:13;31.87;;;17.33;;
3757;SDS011;1894;51.038;13.692;2023-03-01T02:02:45;36.87;;;19.53;;
3757;SDS011;1894;51.038;13.692;2023-03-01T02:08:24;33.80;;;16.57;;
3757;SDS011;1894;51.038;13.692;2023-03-01T02:10:57;31.03;;;15.63;;
3757;SDS011;1894;51.038;13.692;2023-03-01T02:13:26;28.30;;;17.13;;
3757;SDS011;1894;51.038;13.692;2023-03-01T02:15:54;29.93;;;16.90;;
3757;SDS011;1894;51.038;13.692;2023-03-01T02:18:21;38.83;;;17.90;;
3757;SDS011;1894;51.038;13.692;2023-03-01T02:21:01;32.70;;;19.17;;
3757;SDS011;1894;51.038;13.692;2023-03-01T02:23:40;28.87;;;15.87;;
3757;SDS011;1894;51.038;13.692;2023-03-01T02:26:09;30.67;;;16.27;;
3757;SDS011;1894;51.038;13.692;2023-03-01T02:28:50;39.30;;;19.00;;
3757;SDS011;1894;51.038;13.692;2023-03-01T02:31:18;30.30;;;15.90;;
3757;SDS011;1894;51.038;13.692;2023-03-01T02:34:06;27.57;;;16.40;;
3757;SDS011;1894;51.038;13.692;2023-03-01T02:37:01;31.03;;;17.20;;
3757;SDS011;1894;51.038;13.692;2023-03-01T02:39:36;32.53;;;16.17;;
3757;SDS011;1894;51.038;13.692;2023-03-01T02:42:11;35.97;;;18.13;;
3757;SDS011;1894;51.038;13.692;2023-03-01T02:44:46;37.10;;;20.30;;
3757;SDS011;1894;51.038;13.692;2023-03-01T02:47:16;41.53;;;19.30;;
3757;SDS011;1894;51.038;13.692;2023-03-01T02:49:43;31.77;;;18.13;;
3757;SDS011;1894;51.038;13.692;2023-03-01T02:55:15;33.77;;;17.80;;
3757;SDS011;1894;51.038;13.692;2023-03-01T02:57:44;30.70;;;17.80;;
3757;SDS011;1894;51.038;13.692;2023-03-01T03:00:18;34.97;;;17.23;;
3757;SDS011;1894;51.038;13.692;2023-03-01T03:02:59;27.87;;;15.97;;
3757;SDS011;1894;51.038;13.692;2023-03-01T03:05:27;30.63;;;16.53;;
3757;SDS011;1894;51.038;13.692;2023-03-01T03:07:58;27.53;;;14.60;;
3757;SDS011;1894;51.038;13.692;2023-03-01T03:10:34;33.60;;;17.30;;
3757;SDS011;1894;51.038;13.692;2023-03-01T03:13:07;33.50;;;16.13;;
3757;SDS011;1894;51.038;13.692;2023-03-01T03:15:37;29.30;;;16.87;;
3757;SDS011;1894;51.038;13.692;2023-03-01T03:18:09;23.40;;;15.27;;
3757;SDS011;1894;51.038;13.692;2023-03-01T03:20:41;31.40;;;17.10;;
3757;SDS011;1894;51.038;13.692;2023-03-01T03:23:09;30.57;;;16.80;;
3757;SDS011;1894;51.038;13.692;2023-03-01T03:25:36;28.97;;;17.80;;
3757;SDS011;1894;51.038;13.692;2023-03-01T03:28:04;28.47;;;16.03;;
3757;SDS011;1894;51.038;13.692;2023-03-01T03:30:37;30.67;;;16.13;;
3757;SDS011;1894;51.038;13.692;2023-03-01T03:33:07;30.07;;;16.10;;
3757;SDS011;1894;51.038;13.692;2023-03-01T03:35:40;31.27;;;16.80;;
3757;SDS011;1894;51.038;13.692;2023-03-01T03:38:12;28.07;;;17.37;;
3757;SDS011;1894;51.038;13.692;2023-03-01T03:40:51;31.30;;;16.60;;
3757;SDS011;1894;51.038;13.692;2023-03-01T03:43:30;27.90;;;16.00;;
3757;SDS011;1894;51.038;13.692;2023-03-01T03:46:00;30.57;;;16.43;;
3757;SDS011;1894;51.038;13.692;2023-03-01T03:48:36;27.30;;;16.17;;
3757;SDS011;1894;51.038;13.692;2023-03-01T03:51:11;25.70;;;15.93;;
3757;SDS011;1894;51.038;13.692;2023-03-01T03:53:43;30.87;;;17.27;;
3757;SDS011;1894;51.038;13.692;2023-03-01T03:56:11;33.70;;;17.80;;
3757;SDS011;1894;51.038;13.692;2023-03-01T03:58:38;31.37;;;16.77;;
3757;SDS011;1894;51.038;13.692;2023-03-01T04:01:06;33.20;;;17.63;;
3757;SDS011;1894;51.038;13.692;2023-03-01T04:03:33;29.67;;;16.30;;
3757;SDS011;1894;51.038;13.692;2023-03-01T04:06:01;31.60;;;15.80;;
3757;SDS011;1894;51.038;13.692;2023-03-01T04:08:30;32.73;;;17.00;;
3757;SDS011;1894;51.038;13.692;2023-03-01T04:11:01;27.53;;;17.63;;
3757;SDS011;1894;51.038;13.692;2023-03-01T04:13:49;33.03;;;16.47;;
3757;SDS011;1894;51.038;13.692;2023-03-01T04:16:19;30.40;;;17.23;;
3757;SDS011;1894;51.038;13.692;2023-03-01T04:18:47;34.67;;;17.47;;
3757;SDS011;1894;51.038;13.692;2023-03-01T04:21:14;33.23;;;16.53;;
3757;SDS011;1894;51.038;13.692;2023-03-01T04:23:41;31.73;;;17.37;;
3757;SDS011;1894;51.038;13.692;2023-03-01T04:26:08;30.30;;;17.10;;
3757;SDS011;1894;51.038;13.692;2023-03-01T04:28:39;28.60;;;16.30;;
3757;SDS011;1894;51.038;13.692;2023-03-01T04:31:13;31.87;;;16.77;;
3757;SDS011;1894;51.038;13.692;2023-03-01T04:33:50;28.10;;;16.13;;
3757;SDS011;1894;51.038;13.692;2023-03-01T04:36:23;30.57;;;17.83;;
3757;SDS011;1894;51.038;13.692;2023-03-01T04:38:53;25.53;;;14.20;;
3757;SDS011;1894;51.038;13.692;2023-03-01T04:41:23;32.87;;;16.90;;
3757;SDS011;1894;51.038;13.692;2023-03-01T04:43:51;33.93;;;17.40;;
3757;SDS011;1894;51.038;13.692;2023-03-01T04:46:19;27.03;;;14.90;;
3757;SDS011;1894;51.038;13.692;2023-03-01T04:48:47;34.70;;;17.43;;
3757;SDS011;1894;51.038;13.692;2023-03-01T04:51:15;32.03;;;17.27;;
3757;SDS011;1894;51.038;13.692;2023-03-01T04:53:43;35.50;;;18.00;;
3757;SDS011;1894;51.038;13.692;2023-03-01T04:56:11;33.23;;;15.77;;
3757;SDS011;1894;51.038;13.692;2023-03-01T04:58:40;24.40;;;15.93;;
3757;SDS011;1894;51.038;13.692;2023-03-01T05:01:09;31.70;;;14.67;;
3757;SDS011;1894;51.038;13.692;2023-03-01T05:03:47;49.83;;;23.00;;
3757;SDS011;1894;51.038;13.692;2023-03-01T05:06:17;31.27;;;17.97;;
3757;SDS011;1894;51.038;13.692;2023-03-01T05:08:45;33.03;;;16.20;;
3757;SDS011;1894;51.038;13.692;2023-03-01T05:11:13;34.03;;;18.87;;
3757;SDS011;1894;51.038;13.692;2023-03-01T05:13:40;29.50;;;16.43;;
3757;SDS011;1894;51.038;13.692;2023-03-01T05:16:08;33.67;;;17.80;;
3757;SDS011;1894;51.038;13.692;2023-03-01T05:18:38;33.13;;;15.80;;
3757;SDS011;1894;51.038;13.692;2023-03-01T05:21:08;30.87;;;16.37;;
3757;SDS011;1894;51.038;13.692;2023-03-01T05:23:38;34.77;;;19.57;;
3757;SDS011;1894;51.038;13.692;2023-03-01T05:26:06;33.23;;;19.57;;
3757;SDS011;1894;51.038;13.692;2023-03-01T05:28:47;37.00;;;19.10;;
3757;SDS011;1894;51.038;13.692;2023-03-01T05:31:15;34.63;;;19.43;;
3757;SDS011;1894;51.038;13.692;2023-03-01T05:33:42;40.20;;;21.00;;
3757;SDS011;1894;51.038;13.692;2023-03-01T05:36:09;37.33;;;20.40;;
3757;SDS011;1894;51.038;13.692;2023-03-01T05:38:37;34.43;;;19.23;;
3757;SDS011;1894;51.038;13.692;2023-03-01T05:41:04;36.23;;;19.17;;
3757;SDS011;1894;51.038;13.692;2023-03-01T05:43:31;33.93;;;19.27;;
3757;SDS011;1894;51.038;13.692;2023-03-01T05:46:01;35.70;;;18.80;;
3757;SDS011;1894;51.038;13.692;2023-03-01T05:48:28;29.50;;;17.13;;
3757;SDS011;1894;51.038;13.692;2023-03-01T05:50:57;33.80;;;18.77;;
3757;SDS011;1894;51.038;13.692;2023-03-01T05:53:26;32.73;;;18.77;;
3757;SDS011;1894;51.038;13.692;2023-03-01T05:55:53;34.60;;;17.20;;
3757;SDS011;1894;51.038;13.692;2023-03-01T05:58:20;32.83;;;17.43;;
3757;SDS011;1894;51.038;13.692;2023-03-01T06:00:48;29.90;;;17.20;;
3757;SDS011;1894;51.038;13.692;2023-03-01T06:03:16;31.03;;;16.80;;
3757;SDS011;1894;51.038;13.692;2023-03-01T06:05:44;30.27;;;16.63;;
3757;SDS011;1894;51.038;13.692;2023-03-01T06:08:12;30.93;;;16.57;;
3757;SDS011;1894;51.038;13.692;2023-03-01T06:10:40;30.70;;;16.50;;
3757;SDS011;1894;51.038;13.692;2023-03-01T06:13:07;30.37;;;16.53;;
3757;SDS011;1894;51.038;13.692;2023-03-01T06:15:34;34.47;;;18.27;;
3757;SDS011;1894;51.038;13.692;2023-03-01T06:18:01;30.03;;;16.83;;
3757;SDS011;1894;51.038;13.692;2023-03-01T06:20:29;33.90;;;18.80;;
3757;SDS011;1894;51.038;13.692;2023-03-01T06:22:56;35.70;;;16.17;;
3757;SDS011;1894;51.038;13.692;2023-03-01T06:25:24;33.87;;;17.23;;
3757;SDS011;1894;51.038;13.692;2023-03-01T06:27:53;32.43;;;18.77;;
3757;SDS011;1894;51.038;13.692;2023-03-01T06:30:21;33.87;;;17.63;;
3757;SDS011;1894;51.038;13.692;2023-03-01T06:32:51;32.93;;;17.43;;
3757;SDS011;1894;51.038;13.692;2023-03-01T06:35:18;32.77;;;16.63;;
3757;SDS011;1894;51.038;13.692;2023-03-01T06:37:47;29.50;;;18.30;;
3757;SDS011;1894;51.038;13.692;2023-03-01T06:40:15;31.53;;;17.30;;
3757;SDS011;1894;51.038;13.692;2023-03-01T06:42:43;31.40;;;17.33;;
3757;SDS011;1894;51.038;13.692;2023-03-01T06:45:18;30.03;;;16.47;;
3757;SDS011;1894;51.038;13.692;2023-03-01T06:47:47;30.63;;;15.43;;
3757;SDS011;1894;51.038;13.692;2023-03-01T06:50:15;34.90;;;18.73;;
3757;SDS011;1894;51.038;13.692;2023-03-01T06:52:43;31.33;;;17.40;;
3757;SDS011;1894;51.038;13.692;2023-03-01T06:55:11;28.10;;;16.90;;
3757;SDS011;1894;51.038;13.692;2023-03-01T06:57:39;35.63;;;20.97;;
3757;SDS011;1894;51.038;13.692;2023-03-01T07:00:07;31.97;;;18.17;;
3757;SDS011;1894;51.038;13.692;2023-03-01T07:02:35;33.63;;;18.83;;
3757;SDS011;1894;51.038;13.692;2023-03-01T07:05:02;34.87;;;17.80;;
3757;SDS011;1894;51.038;13.692;2023-03-01T07:07:30;36.30;;;19.60;;
3757;SDS011;1894;51.038;13.692;2023-03-01T07:09:57;32.23;;;18.90;;
3757;SDS011;1894;51.038;13.692;2023-03-01T07:12:24;40.20;;;17.70;;
3757;SDS011;1894;51.038;13.692;2023-03-01T07:14:51;32.70;;;18.70;;
3757;SDS011;1894;51.038;13.692;2023-03-01T07:17:18;34.53;;;19.40;;
3757;SDS011;1894;51.038;13.692;2023-03-01T07:19:46;36.20;;;19.50;;
3757;SDS011;1894;51.038;13.692;2023-03-01T07:22:13;40.70;;;20.97;;
3757;SDS011;1894;51.038;13.692;2023-03-01T07:24:40;38.33;;;21.10;;
3757;SDS011;1894;51.038;13.692;2023-03-01T07:27:08;35.60;;;18.57;;
3757;SDS011;1894;51.038;13.692;2023-03-01T07:29:36;38.03;;;20.63;;
3757;SDS011;1894;51.038;13.692;2023-03-01T07:32:03;36.83;;;20.63;;
3757;SDS011;1894;51.038;13.692;2023-03-01T07:34:32;35.70;;;21.17;;
3757;SDS011;1894;51.038;13.692;2023-03-01T07:36:59;32.60;;;18.40;;
3757;SDS011;1894;51.038;13.692;2023-03-01T07:39:26;31.80;;;19.73;;
3757;SDS011;1894;51.038;13.692;2023-03-01T07:41:53;35.40;;;20.40;;
3757;SDS011;1894;51.038;13.692;2023-03-01T07:44:21;34.10;;;20.00;;
3757;SDS011;1894;51.038;13.692;2023-03-01T07:46:48;38.37;;;20.67;;
3757;SDS011;1894;51.038;13.692;2023-03-01T07:49:15;33.00;;;20.43;;
3757;SDS011;1894;51.038;13.692;2023-03-01T07:51:43;37.97;;;19.87;;
3757;SDS011;1894;51.038;13.692;2023-03-01T07:54:11;37.33;;;20.73;;
3757;SDS011;1894;51.038;13.692;2023-03-01T07:56:38;35.00;;;20.33;;
3757;SDS011;1894;51.038;13.692;2023-03-01T07:59:07;40.53;;;21.20;;
3757;SDS011;1894;51.038;13.692;2023-03-01T08:01:34;33.87;;;21.47;;
3757;SDS011;1894;51.038;13.692;2023-03-01T08:04:01;42.93;;;23.43;;
3757;SDS011;1894;51.038;13.692;2023-03-01T08:06:28;37.90;;;21.83;;
3757;SDS011;1894;51.038;13.692;2023-03-01T08:08:56;40.77;;;20.97;;
3757;SDS011;1894;51.038;13.692;2023-03-01T08:11:24;38.03;;;20.10;;
3757;SDS011;1894;51.038;13.692;2023-03-01T08:13:51;38.30;;;21.50;;
3757;SDS011;1894;51.038;13.692;2023-03-01T08:16:19;44.33;;;23.80;;
3757;SDS011;1894;51.038;13.692;2023-03-01T08:18:46;39.93;;;24.30;;
3757;SDS011;1894;51.038;13.692;2023-03-01T08:21:15;37.40;;;21.40;;
3757;SDS011;1894;51.038;13.692;2023-03-01T08:23:43;35.10;;;21.93;;
3757;SDS011;1894;51.038;13.692;2023-03-01T08:26:16;34.37;;;21.40;;
3757;SDS011;1894;51.038;13.692;2023-03-01T08:28:47;39.70;;;23.40;;
3757;SDS011;1894;51.038;13.692;2023-03-01T08:31:22;39.87;;;22.90;;
3757;SDS011;1894;51.038;13.692;2023-03-01T08:33:55;39.40;;;21.60;;
3757;SDS011;1894;51.038;13.692;2023-03-01T08:36:26;38.80;;;22.60;;
3757;SDS011;1894;51.038;13.692;2023-03-01T08:39:13;36.97;;;22.60;;
3757;SDS011;1894;51.038;13.692;2023-03-01T08:41:43;33.20;;;21.03;;
3757;SDS011;1894;51.038;13.692;2023-03-01T08:44:13;34.30;;;21.47;;
3757;SDS011;1894;51.038;13.692;2023-03-01T08:46:43;41.27;;;23.33;;
3757;SDS011;1894;51.038;13.692;2023-03-01T08:49:13;38.17;;;22.30;;
3757;SDS011;1894;51.038;13.692;2023-03-01T08:51:42;40.13;;;21.50;;
3757;SDS011;1894;51.038;13.692;2023-03-01T08:54:15;40.80;;;22.40;;
3757;SDS011;1894;51.038;13.692;2023-03-01T08:56:45;34.13;;;20.60;;
3757;SDS011;1894;51.038;13.692;2023-03-01T08:59:13;33.60;;;21.53;;
3757;SDS011;1894;51.038;13.692;2023-03-01T09:01:42;31.57;;;20.17;;
3757;SDS011;1894;51.038;13.692;2023-03-01T09:04:10;35.17;;;21.00;;
3757;SDS011;1894;51.038;13.692;2023-03-01T09:06:39;37.60;;;23.23;;
3757;SDS011;1894;51.038;13.692;2023-03-01T09:09:06;31.73;;;21.03;;
3757;SDS011;1894;51.038;13.692;2023-03-01T09:11:41;35.80;;;20.83;;
3757;SDS011;1894;51.038;13.692;2023-03-01T09:14:13;32.53;;;20.67;;
3757;SDS011;1894;51.038;13.692;2023-03-01T09:16:41;39.60;;;22.10;;
3757;SDS011;1894;51.038;13.692;2023-03-01T09:19:09;40.50;;;22.17;;
3757;SDS011;1894;51.038;13.692;2023-03-01T09:21:37;38.73;;;22.40;;
3757;SDS011;1894;51.038;13.692;2023-03-01T09:24:13;36.00;;;19.53;;
3757;SDS011;1894;51.038;13.692;2023-03-01T09:26:41;34.13;;;21.77;;
3757;SDS011;1894;51.038;13.692;2023-03-01T09:29:09;32.77;;;20.80;;
3757;SDS011;1894;51.038;13.692;2023-03-01T09:31:36;31.73;;;20.03;;
3757;SDS011;1894;51.038;13.692;2023-03-01T09:34:04;41.73;;;21.93;;
3757;SDS011;1894;51.038;13.692;2023-03-01T09:36:32;33.00;;;19.03;;
3757;SDS011;1894;51.038;13.692;2023-03-01T09:39:00;35.50;;;20.87;;
3757;SDS011;1894;51.038;13.692;2023-03-01T09:41:42;37.00;;;20.50;;
3757;SDS011;1894;51.038;13.692;2023-03-01T09:44:36;36.50;;;21.10;;
3757;SDS011;1894;51.038;13.692;2023-03-01T09:47:46;40.67;;;19.20;;
3757;SDS011;1894;51.038;13.692;2023-03-01T09:50:16;33.93;;;20.57;;
3757;SDS011;1894;51.038;13.692;2023-03-01T09:52:54;37.27;;;21.30;;
3757;SDS011;1894;51.038;13.692;2023-03-01T09:55:40;34.33;;;19.53;;
3757;SDS011;1894;51.038;13.692;2023-03-01T10:01:32;29.17;;;19.50;;
3757;SDS011;1894;51.038;13.692;2023-03-01T10:07:09;31.60;;;18.63;;
3757;SDS011;1894;51.038;13.692;2023-03-01T10:10:15;29.07;;;17.70;;
3757;SDS011;1894;51.038;13.692;2023-03-01T10:13:00;41.67;;;20.37;;
3757;SDS011;1894;51.038;13.692;2023-03-01T10:15:43;33.43;;;20.33;;
3757;SDS011;1894;51.038;13.692;2023-03-01T10:18:17;29.60;;;19.07;;
3757;SDS011;1894;51.038;13.692;2023-03-01T10:23:46;29.87;;;19.97;;
3757;SDS011;1894;51.038;13.692;2023-03-01T10:29:07;33.23;;;20.40;;
3757;SDS011;1894;51.038;13.692;2023-03-01T10:36:49;33.40;;;19.97;;
3757;SDS011;1894;51.038;13.692;2023-03-01T10:39:20;42.80;;;19.97;;
3757;SDS011;1894;51.038;13.692;2023-03-01T10:42:04;37.70;;;18.83;;
3757;SDS011;1894;51.038;13.692;2023-03-01T10:44:47;35.10;;;20.90;;
3757;SDS011;1894;51.038;13.692;2023-03-01T10:47:20;37.53;;;20.10;;
3757;SDS011;1894;51.038;13.692;2023-03-01T10:52:25;34.07;;;20.50;;
3757;SDS011;1894;51.038;13.692;2023-03-01T10:55:23;29.73;;;18.30;;
3757;SDS011;1894;51.038;13.692;2023-03-01T10:58:08;29.90;;;20.00;;
3757;SDS011;1894;51.038;13.692;2023-03-01T11:00:58;31.70;;;20.53;;
3757;SDS011;1894;51.038;13.692;2023-03-01T11:03:36;30.17;;;18.87;;
3757;SDS011;1894;51.038;13.692;2023-03-01T11:06:29;26.40;;;17.97;;
3757;SDS011;1894;51.038;13.692;2023-03-01T11:08:52;27.87;;;17.43;;
3757;SDS011;1894;51.038;13.692;2023-03-01T11:11:38;32.60;;;19.03;;
3757;SDS011;1894;51.038;13.692;2023-03-01T11:14:20;29.87;;;19.53;;
3757;SDS011;1894;51.038;13.692;2023-03-01T11:19:42;30.10;;;19.40;;
3757;SDS011;1894;51.038;13.692;2023-03-01T11:22:26;31.27;;;18.20;;
3757;SDS011;1894;51.038;13.692;2023-03-01T11:24:54;29.10;;;18.03;;
3757;SDS011;1894;51.038;13.692;2023-03-01T11:27:40;27.23;;;16.83;;
3757;SDS011;1894;51.038;13.692;2023-03-01T11:30:22;22.70;;;15.13;;
3757;SDS011;1894;51.038;13.692;2023-03-01T11:35:45;25.33;;;14.60;;
3757;SDS011;1894;51.038;13.692;2023-03-01T11:38:32;23.00;;;16.57;;
3757;SDS011;1894;51.038;13.692;2023-03-01T11:41:06;27.33;;;16.27;;
3757;SDS011;1894;51.038;13.692;2023-03-01T11:43:52;20.77;;;14.63;;
3757;SDS011;1894;51.038;13.692;2023-03-01T11:52:43;29.83;;;16.73;;
3757;SDS011;1894;51.038;13.692;2023-03-01T11:55:42;22.10;;;14.90;;
3757;SDS011;1894;51.038;13.692;2023-03-01T11:58:29;15.80;;;12.40;;
3757;SDS011;1894;51.038;13.692;2023-03-01T12:01:35;18.83;;;14.93;;
3757;SDS011;1894;51.038;13.692;2023-03-01T12:13:18;17.90;;;13.20;;
3757;SDS011;1894;51.038;13.692;2023-03-01T12:17:11;20.13;;;12.83;;
3757;SDS011;1894;51.038;13.692;2023-03-01T12:19:25;17.23;;;13.57;;
3757;SDS011;1894;51.038;13.692;2023-03-01T12:22:13;13.83;;;12.40;;
3757;SDS011;1894;51.038;13.692;2023-03-01T12:43:39;19.37;;;13.40;;
3757;SDS011;1894;51.038;13.692;2023-03-01T12:49:20;17.20;;;14.07;;
3757;SDS011;1894;51.038;13.692;2023-03-01T12:51:58;17.37;;;13.10;;
3757;SDS011;1894;51.038;13.692;2023-03-01T12:55:03;17.73;;;15.83;;
3757;SDS011;1894;51.038;13.692;2023-03-01T13:13:23;20.43;;;15.83;;
3757;SDS011;1894;51.038;13.692;2023-03-01T13:15:52;19.90;;;17.10;;
3757;SDS011;1894;51.038;13.692;2023-03-01T13:20:50;17.83;;;16.03;;
3757;SDS011;1894;51.038;13.692;2023-03-01T13:26:08;15.43;;;13.83;;
3757;SDS011;1894;51.038;13.692;2023-03-01T13:28:41;20.43;;;16.23;;
3757;SDS011;1894;51.038;13.692;2023-03-01T13:41:57;17.80;;;15.40;;
3757;SDS011;1894;51.038;13.692;2023-03-01T13:44:29;18.87;;;17.07;;
3757;SDS011;1894;51.038;13.692;2023-03-01T13:55:15;18.30;;;16.30;;
3757;SDS011;1894;51.038;13.692;2023-03-01T13:57:47;19.70;;;15.83;;
3757;SDS011;1894;51.038;13.692;2023-03-01T14:00:30;19.07;;;16.03;;
3757;SDS011;1894;51.038;13.692;2023-03-01T14:05:56;18.47;;;16.13;;
3757;SDS011;1894;51.038;13.692;2023-03-01T14:08:44;21.93;;;16.20;;
3757;SDS011;1894;51.038;13.692;2023-03-01T14:14:06;18.30;;;15.33;;
3757;SDS011;1894;51.038;13.692;2023-03-01T14:19:36;22.53;;;18.20;;
3757;SDS011;1894;51.038;13.692;2023-03-01T14:24:53;19.03;;;16.63;;
3757;SDS011;1894;51.038;13.692;2023-03-01T14:27:33;20.13;;;16.57;;
3757;SDS011;1894;51.038;13.692;2023-03-01T14:30:11;24.27;;;18.37;;
3757;SDS011;1894;51.038;13.692;2023-03-01T14:33:05;21.93;;;17.80;;
3757;SDS011;1894;51.038;13.692;2023-03-01T14:36:25;19.77;;;16.70;;
3757;SDS011;1894;51.038;13.692;2023-03-01T14:38:40;21.80;;;17.90;;
3757;SDS011;1894;51.038;13.692;2023-03-01T14:41:18;19.53;;;16.60;;
3757;SDS011;1894;51.038;13.692;2023-03-01T14:49:11;22.70;;;18.30;;
3757;SDS011;1894;51.038;13.692;2023-03-01T14:52:01;20.20;;;16.67;;
3757;SDS011;1894;51.038;13.692;2023-03-01T14:54:42;21.60;;;18.17;;
3757;SDS011;1894;51.038;13.692;2023-03-01T14:57:17;19.80;;;16.67;;
3757;SDS011;1894;51.038;13.692;2023-03-01T14:59:51;20.30;;;18.00;;
3757;SDS011;1894;51.038;13.692;2023-03-01T15:02:25;21.93;;;17.20;;
3757;SDS011;1894;51.038;13.692;2023-03-01T15:04:55;20.33;;;17.23;;
3757;SDS011;1894;51.038;13.692;2023-03-01T15:07:35;22.37;;;17.63;;
3757;SDS011;1894;51.038;13.692;2023-03-01T15:10:14;21.70;;;17.37;;
3757;SDS011;1894;51.038;13.692;2023-03-01T15:12:50;22.63;;;17.33;;
3757;SDS011;1894;51.038;13.692;2023-03-01T15:15:41;26.63;;;16.97;;
3757;SDS011;1894;51.038;13.692;2023-03-01T15:20:45;19.90;;;16.60;;
3757;SDS011;1894;51.038;13.692;2023-03-01T15:23:17;23.37;;;18.63;;
3757;SDS011;1894;51.038;13.692;2023-03-01T15:25:56;22.77;;;17.50;;
3757;SDS011;1894;51.038;13.692;2023-03-01T15:28:28;17.50;;;14.70;;
3757;SDS011;1894;51.038;13.692;2023-03-01T15:31:17;19.10;;;14.50;;
3757;SDS011;1894;51.038;13.692;2023-03-01T15:33:49;19.93;;;14.37;;
3757;SDS011;1894;51.038;13.692;2023-03-01T15:42:57;21.33;;;15.93;;
3757;SDS011;1894;51.038;13.692;2023-03-01T15:47:47;21.67;;;15.03;;
3757;SDS011;1894;51.038;13.692;2023-03-01T15:50:31;23.20;;;15.63;;
3757;SDS011;1894;51.038;13.692;2023-03-01T15:53:04;24.17;;;15.77;;
3757;SDS011;1894;51.038;13.692;2023-03-01T15:55:37;23.97;;;15.93;;
3757;SDS011;1894;51.038;13.692;2023-03-01T16:00:46;21.23;;;15.30;;
3757;SDS011;1894;51.038;13.692;2023-03-01T16:03:26;21.20;;;14.80;;
3757;SDS011;1894;51.038;13.692;2023-03-01T16:05:54;19.67;;;13.33;;
3757;SDS011;1894;51.038;13.692;2023-03-01T16:08:22;19.83;;;13.63;;
3757;SDS011;1894;51.038;13.692;2023-03-01T16:10:49;20.53;;;14.20;;
3757;SDS011;1894;51.038;13.692;2023-03-01T16:13:17;19.83;;;13.43;;
3757;SDS011;1894;51.038;13.692;2023-03-01T16:15:45;20.70;;;13.97;;
3757;SDS011;1894;51.038;13.692;2023-03-01T16:18:13;20.80;;;13.00;;
3757;SDS011;1894;51.038;13.692;2023-03-01T16:20:40;24.93;;;14.97;;
3757;SDS011;1894;51.038;13.692;2023-03-01T16:23:08;21.13;;;13.13;;
3757;SDS011;1894;51.038;13.692;2023-03-01T16:25:37;18.00;;;13.00;;
3757;SDS011;1894;51.038;13.692;2023-03-01T16:28:04;17.97;;;12.13;;
3757;SDS011;1894;51.038;13.692;2023-03-01T16:30:36;21.90;;;13.50;;
3757;SDS011;1894;51.038;13.692;2023-03-01T16:33:06;26.50;;;16.77;;
3757;SDS011;1894;51.038;13.692;2023-03-01T16:35:52;26.70;;;16.47;;
3757;SDS011;1894;51.038;13.692;2023-03-01T16:38:19;30.77;;;17.43;;
3757;SDS011;1894;51.038;13.692;2023-03-01T16:40:47;41.63;;;24.47;;
3757;SDS011;1894;51.038;13.692;2023-03-01T16:43:17;24.70;;;14.60;;
3757;SDS011;1894;51.038;13.692;2023-03-01T16:45:44;24.33;;;15.27;;
3757;SDS011;1894;51.038;13.692;2023-03-01T16:48:12;43.27;;;23.60;;
3757;SDS011;1894;51.038;13.692;2023-03-01T16:50:40;22.70;;;14.73;;
3757;SDS011;1894;51.038;13.692;2023-03-01T16:53:08;25.67;;;13.47;;
3757;SDS011;1894;51.038;13.692;2023-03-01T16:55:35;24.50;;;12.53;;
3757;SDS011;1894;51.038;13.692;2023-03-01T16:58:02;19.77;;;12.97;;
3757;SDS011;1894;51.038;13.692;2023-03-01T17:00:30;18.90;;;13.33;;
3757;SDS011;1894;51.038;13.692;2023-03-01T17:02:57;21.53;;;13.43;;
3757;SDS011;1894;51.038;13.692;2023-03-01T17:05:25;19.80;;;13.50;;
3757;SDS011;1894;51.038;13.692;2023-03-01T17:07:52;26.43;;;13.47;;
3757;SDS011;1894;51.038;13.692;2023-03-01T17:10:22;18.80;;;12.73;;
3757;SDS011;1894;51.038;13.692;2023-03-01T17:12:50;23.83;;;13.87;;
3757;SDS011;1894;51.038;13.692;2023-03-01T17:15:17;22.43;;;14.13;;
3757;SDS011;1894;51.038;13.692;2023-03-01T17:17:45;33.07;;;14.87;;
3757;SDS011;1894;51.038;13.692;2023-03-01T17:20:17;26.80;;;15.13;;
3757;SDS011;1894;51.038;13.692;2023-03-01T17:22:44;31.90;;;16.70;;
3757;SDS011;1894;51.038;13.692;2023-03-01T17:25:11;36.63;;;16.67;;
3757;SDS011;1894;51.038;13.692;2023-03-01T17:27:39;26.13;;;16.70;;
3757;SDS011;1894;51.038;13.692;2023-03-01T17:30:07;30.93;;;18.10;;
3757;SDS011;1894;51.038;13.692;2023-03-01T17:32:36;30.87;;;16.13;;
3757;SDS011;1894;51.038;13.692;2023-03-01T17:35:04;33.13;;;18.20;;